Time;durP1;ratioP1;P1;durP2;ratioP2;P2;SDS_P1;SDS_P2;PMS_P1;PMS_P2;Temp;Humidity;BMP_temperature;BMP_pressure;BME280_temperature;BME280_humidity;BME280_pressure;Samples;Min_cycle;Max_cycle;Signal;HPM_P1;HPM_P2
2022/03/19 00:00:54;;;;;;;0.10;0.10;;;;;;;;;;4920947;29;20518;-89
2022/03/19 00:03:20;;;;;;;0.10;0.10;;;;;;;;;;4920903;29;20040;-89
2022/03/19 00:05:46;;;;;;;0.10;0.10;;;;;;;;;;4935935;29;20048;-89
2022/03/19 00:08:12;;;;;;;0.10;0.10;;;;;;;;;;4906385;28;20047;-89
2022/03/19 00:10:38;;;;;;;0.10;0.10;;;;;;;;;;4923245;29;20053;-89
2022/03/19 00:13:04;;;;;;;0.10;0.10;;;;;;;;;;4923533;29;20051;-89
2022/03/19 00:15:30;;;;;;;0.10;0.10;;;;;;;;;;4923862;29;20039;-89
2022/03/19 00:17:57;;;;;;;0.10;0.10;;;;;;;;;;4923931;29;20053;-90
2022/03/19 00:20:23;;;;;;;0.75;0.75;;;;;;;;;;4923504;29;20043;-89
2022/03/19 00:22:49;;;;;;;0.10;0.10;;;;;;;;;;4923299;29;20046;-90
2022/03/19 00:25:15;;;;;;;0.10;0.10;;;;;;;;;;4923849;29;20043;-88
2022/03/19 00:27:41;;;;;;;0.10;0.10;;;;;;;;;;4923506;29;20094;-88
2022/03/19 00:30:07;;;;;;;0.10;0.10;;;;;;;;;;4923680;29;20047;-88
2022/03/19 00:32:34;;;;;;;0.10;0.10;;;;;;;;;;4923575;29;20043;-89
2022/03/19 00:35:00;;;;;;;0.10;0.10;;;;;;;;;;4923706;29;20078;-89
2022/03/19 00:37:26;;;;;;;0.10;0.10;;;;;;;;;;4923637;29;20097;-88
2022/03/19 00:39:52;;;;;;;0.10;0.10;;;;;;;;;;4923541;29;20043;-88
2022/03/19 00:42:18;;;;;;;0.10;0.10;;;;;;;;;;4923293;29;20499;-88
2022/03/19 00:44:44;;;;;;;0.10;0.10;;;;;;;;;;4922753;28;20075;-88
2022/03/19 00:47:10;;;;;;;0.10;0.10;;;;;;;;;;4922865;29;20039;-88
2022/03/19 00:49:36;;;;;;;0.00;0.00;;;;;;;;;;4923465;29;20436;-88
2022/03/19 00:52:02;;;;;;;0.10;0.10;;;;;;;;;;4923235;29;20077;-89
2022/03/19 00:54:28;;;;;;;0.10;0.10;;;;;;;;;;4923371;28;20111;-89
2022/03/19 00:56:54;;;;;;;0.10;0.10;;;;;;;;;;4922957;29;20050;-89
2022/03/19 00:59:20;;;;;;;0.10;0.10;;;;;;;;;;4923330;29;20046;-90
2022/03/19 01:01:46;;;;;;;0.10;0.10;;;;;;;;;;4938653;29;20047;-89
2022/03/19 01:04:12;;;;;;;0.10;0.10;;;;;;;;;;4923142;29;20055;-90
2022/03/19 01:06:38;;;;;;;0.20;0.20;;;;;;;;;;4922916;29;20051;-90
2022/03/19 01:09:04;;;;;;;0.90;0.10;;;;;;;;;;4923000;29;20138;-88
2022/03/19 01:11:30;;;;;;;0.10;0.10;;;;;;;;;;4923150;29;20042;-89
2022/03/19 01:13:56;;;;;;;0.10;0.10;;;;;;;;;;4922939;29;20035;-89
2022/03/19 01:16:23;;;;;;;0.10;0.10;;;;;;;;;;4922743;29;20487;-89
2022/03/19 01:18:49;;;;;;;0.10;0.10;;;;;;;;;;4923259;29;20070;-90
2022/03/19 01:21:15;;;;;;;0.10;0.10;;;;;;;;;;4922709;29;20119;-90
2022/03/19 01:23:41;;;;;;;0.10;0.10;;;;;;;;;;4922706;29;20130;-89
2022/03/19 01:26:07;;;;;;;0.10;0.10;;;;;;;;;;4921892;29;20087;-89
2022/03/19 01:28:33;;;;;;;0.10;0.10;;;;;;;;;;4922836;29;20070;-89
2022/03/19 01:30:59;;;;;;;0.10;0.10;;;;;;;;;;4922710;29;20078;-88
2022/03/19 01:33:25;;;;;;;0.10;0.10;;;;;;;;;;4922526;29;20126;-89
2022/03/19 01:35:51;;;;;;;0.10;0.10;;;;;;;;;;4922713;29;20105;-89
2022/03/19 01:38:17;;;;;;;0.10;0.10;;;;;;;;;;4922512;29;20458;-89
2022/03/19 01:40:43;;;;;;;0.10;0.10;;;;;;;;;;4922548;29;20079;-89
2022/03/19 01:43:09;;;;;;;0.10;0.10;;;;;;;;;;4922458;29;20054;-89
2022/03/19 01:45:35;;;;;;;0.10;0.10;;;;;;;;;;4938170;29;20059;-89
2022/03/19 01:48:01;;;;;;;0.10;0.10;;;;;;;;;;4922456;29;20055;-89
2022/03/19 01:50:27;;;;;;;0.10;0.10;;;;;;;;;;4922224;29;20079;-89
2022/03/19 01:52:53;;;;;;;0.10;0.10;;;;;;;;;;4922306;29;20086;-89
2022/03/19 01:55:20;;;;;;;0.10;0.10;;;;;;;;;;4937822;29;20082;-88
2022/03/19 01:57:46;;;;;;;0.10;0.10;;;;;;;;;;4922324;29;20106;-89
2022/03/19 02:00:14;;;;;;;0.10;0.10;;;;;;;;;;4922229;29;20185;-89
2022/03/19 02:02:40;;;;;;;0.10;0.10;;;;;;;;;;4922229;29;20082;-88
2022/03/19 02:05:07;;;;;;;0.10;0.10;;;;;;;;;;4921426;29;20054;-88
2022/03/19 02:07:33;;;;;;;0.10;0.10;;;;;;;;;;4922122;29;20043;-89
2022/03/19 02:09:59;;;;;;;0.10;0.10;;;;;;;;;;4921864;29;20059;-89
2022/03/19 02:12:25;;;;;;;0.10;0.10;;;;;;;;;;4922173;29;20055;-89
2022/03/19 02:14:51;;;;;;;0.10;0.10;;;;;;;;;;4921754;29;20046;-89
2022/03/19 02:17:18;;;;;;;0.10;0.10;;;;;;;;;;4937601;29;20043;-89
2022/03/19 02:19:48;;;;;;;0.10;0.10;;;;;;;;;;4921728;29;20172;-89
2022/03/19 02:22:14;;;;;;;0.10;0.10;;;;;;;;;;4921928;29;20075;-88
2022/03/19 02:27:24;;;;;;;0.10;0.10;;;;;;;;;;4924305;29;20443;-89
2022/03/19 02:29:51;;;;;;;0.10;0.10;;;;;;;;;;4921871;29;20050;-89
2022/03/19 02:32:17;;;;;;;0.10;0.10;;;;;;;;;;4922792;29;20043;-88
2022/03/19 02:34:43;;;;;;;0.10;0.10;;;;;;;;;;4925621;28;20040;-88
2022/03/19 02:37:09;;;;;;;0.10;0.10;;;;;;;;;;4925897;29;20046;-88
2022/03/19 02:39:35;;;;;;;0.10;0.10;;;;;;;;;;4925799;29;20097;-88
2022/03/19 02:42:05;;;;;;;0.10;0.10;;;;;;;;;;4925339;29;20411;-89
2022/03/19 02:44:31;;;;;;;0.10;0.10;;;;;;;;;;4925292;28;20039;-89
2022/03/19 02:47:22;;;;;;;0.10;0.10;;;;;;;;;;4925753;29;20050;-89
2022/03/19 02:49:48;;;;;;;0.10;0.10;;;;;;;;;;4940689;29;20043;-89
2022/03/19 02:52:13;;;;;;;0.10;0.10;;;;;;;;;;4925401;29;20046;-90
2022/03/19 02:54:39;;;;;;;0.10;0.10;;;;;;;;;;4925871;28;20046;-89
2022/03/19 02:57:05;;;;;;;0.52;0.38;;;;;;;;;;4925615;29;20039;-89
2022/03/19 02:59:32;;;;;;;0.10;0.10;;;;;;;;;;4925114;29;20047;-90
2022/03/19 03:02:02;;;;;;;0.10;0.10;;;;;;;;;;4925489;29;20483;-90
2022/03/19 03:04:28;;;;;;;0.10;0.10;;;;;;;;;;4925162;28;20043;-90
2022/03/19 03:06:55;;;;;;;0.10;0.10;;;;;;;;;;4924833;29;20050;-89
2022/03/19 03:09:21;;;;;;;0.10;0.10;;;;;;;;;;4925111;29;20138;-89
2022/03/19 03:11:47;;;;;;;0.10;0.10;;;;;;;;;;4925349;29;20122;-90
2022/03/19 03:14:13;;;;;;;0.10;0.10;;;;;;;;;;4925268;29;20039;-90
2022/03/19 03:16:40;;;;;;;0.10;0.10;;;;;;;;;;4925113;29;20043;-89
2022/03/19 03:19:06;;;;;;;0.10;0.10;;;;;;;;;;4941013;29;20057;-89
2022/03/19 03:21:33;;;;;;;0.10;0.10;;;;;;;;;;4924897;29;20050;-90
2022/03/19 03:23:59;;;;;;;0.10;0.10;;;;;;;;;;4924624;29;20039;-89
2022/03/19 03:26:25;;;;;;;0.10;0.10;;;;;;;;;;4924964;29;20046;-89
2022/03/19 03:28:51;;;;;;;0.10;0.10;;;;;;;;;;4924668;29;20043;-88
2022/03/19 03:31:17;;;;;;;0.10;0.10;;;;;;;;;;4924841;29;20050;-88
2022/03/19 03:33:43;;;;;;;0.10;0.10;;;;;;;;;;4940431;29;20043;-89
2022/03/19 03:36:09;;;;;;;0.10;0.10;;;;;;;;;;4924671;29;20407;-89
2022/03/19 03:38:35;;;;;;;0.10;0.10;;;;;;;;;;4924108;29;20047;-89
2022/03/19 03:41:01;;;;;;;0.10;0.10;;;;;;;;;;4924659;29;20047;-89
2022/03/19 03:43:27;;;;;;;0.10;0.10;;;;;;;;;;4924289;29;20049;-89
2022/03/19 03:45:53;;;;;;;0.10;0.10;;;;;;;;;;4924575;29;20106;-88
2022/03/19 03:48:19;;;;;;;0.10;0.10;;;;;;;;;;4924833;29;20104;-89
2022/03/19 03:50:46;;;;;;;0.10;0.10;;;;;;;;;;4925314;29;20047;-89
2022/03/19 03:53:11;;;;;;;4.28;1.10;;;;;;;;;;4925199;29;20039;-90
2022/03/19 03:55:38;;;;;;;0.10;0.10;;;;;;;;;;4925629;29;20046;-89
2022/03/19 03:58:04;;;;;;;0.10;0.10;;;;;;;;;;4924451;29;20079;-89
2022/03/19 04:00:30;;;;;;;0.10;0.10;;;;;;;;;;4924802;29;20398;-89
2022/03/19 04:02:56;;;;;;;0.10;0.10;;;;;;;;;;4924273;29;20491;-89
2022/03/19 04:05:22;;;;;;;0.10;0.10;;;;;;;;;;4923992;29;20043;-88
2022/03/19 04:07:48;;;;;;;0.10;0.10;;;;;;;;;;4923949;29;20051;-89
2022/03/19 04:10:14;;;;;;;0.10;0.10;;;;;;;;;;4923712;29;20062;-90
2022/03/19 04:12:40;;;;;;;0.10;0.10;;;;;;;;;;4924050;29;20082;-90
2022/03/19 04:15:07;;;;;;;0.10;0.10;;;;;;;;;;4924085;29;20086;-90
2022/03/19 04:17:33;;;;;;;0.10;0.10;;;;;;;;;;4923419;29;20043;-89
2022/03/19 04:19:59;;;;;;;0.10;0.10;;;;;;;;;;4923838;29;20050;-90
2022/03/19 04:22:32;;;;;;;0.10;0.10;;;;;;;;;;4923854;29;20039;-89
2022/03/19 04:24:59;;;;;;;0.10;0.10;;;;;;;;;;4923606;29;20130;-89
2022/03/19 04:27:25;;;;;;;0.10;0.10;;;;;;;;;;4923666;29;20554;-89
2022/03/19 04:29:51;;;;;;;0.10;0.10;;;;;;;;;;4923752;29;20122;-90
2022/03/19 04:32:17;;;;;;;0.10;0.10;;;;;;;;;;4923843;29;20391;-89
2022/03/19 04:34:43;;;;;;;0.10;0.10;;;;;;;;;;4923790;28;20046;-88
2022/03/19 04:37:09;;;;;;;0.10;0.10;;;;;;;;;;4923783;29;20035;-89
2022/03/19 04:39:35;;;;;;;0.10;0.10;;;;;;;;;;4923430;29;20118;-88
2022/03/19 04:42:01;;;;;;;0.10;0.10;;;;;;;;;;4939101;29;20049;-89
2022/03/19 04:44:27;;;;;;;0.08;0.08;;;;;;;;;;4923268;28;20475;-90
2022/03/19 04:46:53;;;;;;;0.10;0.10;;;;;;;;;;4923529;29;20043;-89
2022/03/19 04:49:19;;;;;;;0.10;0.10;;;;;;;;;;4923423;29;20054;-89
2022/03/19 04:51:45;;;;;;;0.10;0.10;;;;;;;;;;4923624;29;20055;-88
2022/03/19 04:54:11;;;;;;;0.10;0.10;;;;;;;;;;4938970;28;20066;-88
2022/03/19 04:56:37;;;;;;;0.08;0.08;;;;;;;;;;4922874;29;20503;-88
2022/03/19 04:59:03;;;;;;;0.10;0.10;;;;;;;;;;4922907;29;20086;-87
2022/03/19 05:01:30;;;;;;;0.10;0.10;;;;;;;;;;4922690;29;20090;-88
2022/03/19 05:03:56;;;;;;;0.00;0.00;;;;;;;;;;4923557;29;20051;-90
2022/03/19 05:06:22;;;;;;;0.10;0.10;;;;;;;;;;4923466;29;20126;-89
2022/03/19 05:11:12;;;;;;;0.00;0.00;;;;;;;;;;4923649;29;20075;-89
2022/03/19 05:11:37;;;;;;;0.10;0.10;;;;;;;;;;4939021;29;20049;-89
2022/03/19 05:14:04;;;;;;;0.10;0.10;;;;;;;;;;4938609;29;20122;-89
2022/03/19 05:16:30;;;;;;;0.10;0.10;;;;;;;;;;4922994;29;20126;-90
2022/03/19 05:18:56;;;;;;;0.10;0.10;;;;;;;;;;4922654;29;20058;-90
2022/03/19 05:21:22;;;;;;;0.10;0.10;;;;;;;;;;4922460;29;20043;-89
2022/03/19 05:23:48;;;;;;;0.10;0.10;;;;;;;;;;4922674;29;20047;-90
2022/03/19 05:26:14;;;;;;;0.10;0.10;;;;;;;;;;4922679;29;20043;-88
2022/03/19 05:28:40;;;;;;;0.10;0.10;;;;;;;;;;4922384;29;20039;-90
2022/03/19 05:31:07;;;;;;;0.10;0.10;;;;;;;;;;4938462;29;20056;-90
2022/03/19 05:36:17;;;;;;;0.10;0.10;;;;;;;;;;4925778;29;20051;-95
2022/03/19 05:38:43;;;;;;;0.10;0.10;;;;;;;;;;4922802;29;20043;-90
2022/03/19 05:41:09;;;;;;;0.10;0.10;;;;;;;;;;4922664;29;20399;-90
2022/03/19 05:43:35;;;;;;;0.10;0.10;;;;;;;;;;4922591;29;20038;-90
2022/03/19 05:46:01;;;;;;;0.10;0.10;;;;;;;;;;4922287;29;20051;-90
2022/03/19 05:48:27;;;;;;;0.10;0.10;;;;;;;;;;4921668;29;20057;-90
2022/03/19 05:50:54;;;;;;;0.10;0.10;;;;;;;;;;4921544;29;20043;-89
2022/03/19 05:53:20;;;;;;;0.10;0.10;;;;;;;;;;4922223;29;20066;-89
2022/03/19 05:55:46;;;;;;;0.10;0.10;;;;;;;;;;4922467;29;20491;-89
2022/03/19 05:58:12;;;;;;;0.10;0.10;;;;;;;;;;4937766;29;20046;-89
2022/03/19 06:00:38;;;;;;;0.10;0.10;;;;;;;;;;4921556;29;20089;-89
2022/03/19 06:03:04;;;;;;;0.10;0.10;;;;;;;;;;4922463;29;20078;-89
2022/03/19 06:05:30;;;;;;;1.17;1.13;;;;;;;;;;4922532;29;20050;-89
2022/03/19 06:07:56;;;;;;;0.10;0.10;;;;;;;;;;4921667;29;20093;-92
2022/03/19 06:10:21;;;;;;;0.10;0.10;;;;;;;;;;4923211;29;20051;-94
2022/03/19 06:12:47;;;;;;;0.10;0.10;;;;;;;;;;4923786;29;20047;-90
2022/03/19 06:15:14;;;;;;;0.10;0.10;;;;;;;;;;4922849;29;20043;-94
2022/03/19 06:17:41;;;;;;;0.10;0.10;;;;;;;;;;4924011;29;20063;-94
2022/03/19 06:20:07;;;;;;;0.10;0.10;;;;;;;;;;4923144;29;20047;-93
2022/03/19 06:22:33;;;;;;;0.10;0.10;;;;;;;;;;4923067;29;20047;-92
2022/03/19 06:24:59;;;;;;;0.10;0.10;;;;;;;;;;4923127;29;20049;-93
2022/03/19 06:27:25;;;;;;;0.10;0.10;;;;;;;;;;4923535;29;20054;-94
2022/03/19 06:29:51;;;;;;;0.10;0.10;;;;;;;;;;4922213;29;20035;-93
2022/03/19 06:32:20;;;;;;;0.10;0.10;;;;;;;;;;4923313;29;20086;-93
2022/03/19 06:34:48;;;;;;;0.10;0.10;;;;;;;;;;4923642;28;20035;-93
2022/03/19 06:37:20;;;;;;;0.10;0.10;;;;;;;;;;4923130;29;20182;-94
2022/03/19 06:39:47;;;;;;;0.10;0.10;;;;;;;;;;4924095;29;20394;-93
2022/03/19 06:42:13;;;;;;;0.40;0.13;;;;;;;;;;4923409;29;20051;-93
2022/03/19 06:44:39;;;;;;;0.10;0.10;;;;;;;;;;4922485;28;20131;-90
2022/03/19 06:47:06;;;;;;;0.10;0.10;;;;;;;;;;4921673;29;20050;-90
2022/03/19 06:49:32;;;;;;;0.10;0.10;;;;;;;;;;4921726;29;20035;-90
2022/03/19 06:51:58;;;;;;;0.10;0.10;;;;;;;;;;4921732;29;20047;-91
2022/03/19 06:54:24;;;;;;;0.10;0.10;;;;;;;;;;4922098;29;20106;-92
2022/03/19 06:56:52;;;;;;;0.10;0.10;;;;;;;;;;4921725;29;20035;-90
2022/03/19 06:59:18;;;;;;;0.22;0.22;;;;;;;;;;4922370;29;20035;-90
2022/03/19 07:01:44;;;;;;;0.20;0.20;;;;;;;;;;4937883;29;20063;-89
2022/03/19 07:04:10;;;;;;;0.00;0.00;;;;;;;;;;4923115;29;20046;-94
2022/03/19 07:06:36;;;;;;;0.10;0.10;;;;;;;;;;4923124;29;20083;-94
2022/03/19 07:09:02;;;;;;;0.10;0.10;;;;;;;;;;4922374;29;20052;-92
2022/03/19 07:11:30;;;;;;;0.10;0.10;;;;;;;;;;4922397;29;20530;-91
2022/03/19 07:13:56;;;;;;;0.10;0.10;;;;;;;;;;4922288;29;20523;-94
2022/03/19 07:16:23;;;;;;;0.10;0.10;;;;;;;;;;4923252;29;20110;-92
2022/03/19 07:18:49;;;;;;;0.10;0.10;;;;;;;;;;4924518;29;20043;-90
2022/03/19 07:21:16;;;;;;;0.10;0.10;;;;;;;;;;4925497;29;20047;-89
2022/03/19 07:23:45;;;;;;;0.10;0.10;;;;;;;;;;4925459;29;20043;-91
2022/03/19 07:26:11;;;;;;;0.10;0.10;;;;;;;;;;4925011;29;20047;-88
2022/03/19 07:28:37;;;;;;;0.10;0.10;;;;;;;;;;4924531;29;20130;-87
2022/03/19 07:31:03;;;;;;;0.10;0.10;;;;;;;;;;4925193;29;20050;-88
2022/03/19 07:33:33;;;;;;;0.10;0.10;;;;;;;;;;4924569;29;20066;-88
2022/03/19 07:35:59;;;;;;;0.10;0.10;;;;;;;;;;4925377;29;20491;-88
2022/03/19 07:38:26;;;;;;;0.00;0.00;;;;;;;;;;4924423;29;20102;-90
2022/03/19 07:43:37;;;;;;;0.10;0.10;;;;;;;;;;4927284;29;20051;-90
2022/03/19 07:46:03;;;;;;;0.10;0.10;;;;;;;;;;4924650;29;20054;-90
2022/03/19 07:48:29;;;;;;;0.10;0.10;;;;;;;;;;4924252;29;20040;-91
2022/03/19 07:50:55;;;;;;;0.10;0.10;;;;;;;;;;4924750;29;20051;-90
2022/03/19 07:53:21;;;;;;;0.10;0.10;;;;;;;;;;4925013;29;20058;-91
2022/03/19 07:55:47;;;;;;;0.10;0.10;;;;;;;;;;4924957;29;20035;-90
2022/03/19 07:58:13;;;;;;;0.10;0.10;;;;;;;;;;4924167;29;20138;-91
2022/03/19 08:00:39;;;;;;;0.10;0.10;;;;;;;;;;4924064;29;20106;-90
2022/03/19 08:03:05;;;;;;;0.10;0.10;;;;;;;;;;4924543;29;20483;-89
2022/03/19 08:05:31;;;;;;;0.10;0.10;;;;;;;;;;4923753;29;20046;-88
2022/03/19 08:07:57;;;;;;;0.10;0.10;;;;;;;;;;4924004;29;20039;-89
2022/03/19 08:10:24;;;;;;;0.10;0.10;;;;;;;;;;4924137;29;20055;-89
2022/03/19 08:12:50;;;;;;;0.10;0.10;;;;;;;;;;4909195;29;20582;-90
2022/03/19 08:15:17;;;;;;;0.10;0.10;;;;;;;;;;4924212;29;20094;-89
2022/03/19 08:17:43;;;;;;;0.30;0.30;;;;;;;;;;4924521;29;20429;-88
2022/03/19 08:20:09;;;;;;;0.10;0.10;;;;;;;;;;4923694;29;20047;-88
2022/03/19 08:22:35;;;;;;;0.10;0.10;;;;;;;;;;4924099;29;20047;-90
2022/03/19 08:25:01;;;;;;;0.10;0.10;;;;;;;;;;4923869;29;20475;-87
2022/03/19 08:27:27;;;;;;;1.88;0.30;;;;;;;;;;4923764;29;20058;-88
2022/03/19 08:29:54;;;;;;;0.10;0.10;;;;;;;;;;4923475;29;20071;-92
2022/03/19 08:32:30;;;;;;;0.20;0.20;;;;;;;;;;4925583;29;20047;-96
2022/03/19 08:34:56;;;;;;;0.20;0.20;;;;;;;;;;4928657;29;20043;-92
2022/03/19 08:37:22;;;;;;;0.10;0.10;;;;;;;;;;4924593;29;20118;-92
2022/03/19 08:42:33;;;;;;;0.10;0.10;;;;;;;;;;4926571;29;20402;-93
2022/03/19 08:44:59;;;;;;;0.10;0.10;;;;;;;;;;4924870;29;20043;-93
2022/03/19 08:47:25;;;;;;;0.10;0.10;;;;;;;;;;4923251;29;20044;-91
2022/03/19 08:49:51;;;;;;;0.10;0.10;;;;;;;;;;4924050;29;20040;-91
2022/03/19 08:52:17;;;;;;;0.10;0.10;;;;;;;;;;4924103;29;20110;-92
2022/03/19 08:54:43;;;;;;;0.10;0.10;;;;;;;;;;4923638;28;20229;-91
2022/03/19 08:57:10;;;;;;;0.15;0.15;;;;;;;;;;4923932;29;20114;-91
2022/03/19 08:59:36;;;;;;;2.20;0.20;;;;;;;;;;4923955;29;20036;-92
2022/03/19 09:02:02;;;;;;;0.10;0.10;;;;;;;;;;4923706;29;20079;-92
2022/03/19 09:04:28;;;;;;;0.10;0.10;;;;;;;;;;4923754;28;20043;-92
2022/03/19 09:06:54;;;;;;;0.20;0.20;;;;;;;;;;4924382;29;20036;-90
2022/03/19 09:09:20;;;;;;;0.20;0.20;;;;;;;;;;4923215;29;20063;-90
2022/03/19 09:11:48;;;;;;;0.10;0.10;;;;;;;;;;4923051;29;20047;-91
2022/03/19 09:14:15;;;;;;;0.10;0.10;;;;;;;;;;4923748;29;20105;-92
2022/03/19 09:16:41;;;;;;;0.13;0.13;;;;;;;;;;4923107;29;20447;-90
2022/03/19 09:19:07;;;;;;;0.10;0.10;;;;;;;;;;4923574;29;20043;-92
2022/03/19 09:21:33;;;;;;;0.10;0.10;;;;;;;;;;4923136;29;20039;-91
2022/03/19 09:24:00;;;;;;;0.10;0.10;;;;;;;;;;4923357;29;20094;-91
2022/03/19 09:26:26;;;;;;;0.10;0.10;;;;;;;;;;4922091;29;20503;-88
2022/03/19 09:28:52;;;;;;;0.10;0.10;;;;;;;;;;4922140;29;20043;-88
2022/03/19 09:31:19;;;;;;;0.10;0.10;;;;;;;;;;4922505;29;20088;-90
2022/03/19 09:33:45;;;;;;;0.20;0.20;;;;;;;;;;4938780;29;20050;-91
2022/03/19 09:36:11;;;;;;;0.10;0.10;;;;;;;;;;4923011;29;20078;-90
2022/03/19 09:38:37;;;;;;;1.25;1.10;;;;;;;;;;4922582;29;20043;-90
2022/03/19 09:41:03;;;;;;;0.10;0.10;;;;;;;;;;4922650;29;20055;-88
2022/03/19 09:43:37;;;;;;;0.10;0.10;;;;;;;;;;4922977;29;20051;-96
2022/03/19 09:46:15;;;;;;;0.10;0.10;;;;;;;;;;4923892;29;20051;-92
2022/03/19 09:48:41;;;;;;;0.10;0.10;;;;;;;;;;4923249;29;20051;-89
2022/03/19 09:51:08;;;;;;;0.10;0.10;;;;;;;;;;4923242;29;20066;-90
2022/03/19 09:53:34;;;;;;;0.10;0.10;;;;;;;;;;4922958;29;20039;-90
2022/03/19 09:56:03;;;;;;;0.10;0.10;;;;;;;;;;4922989;29;20039;-92
2022/03/19 09:58:29;;;;;;;0.10;0.10;;;;;;;;;;4923016;29;20050;-90
2022/03/19 10:00:55;;;;;;;0.10;0.10;;;;;;;;;;4923093;29;20054;-92
2022/03/19 10:03:23;;;;;;;0.10;0.10;;;;;;;;;;4922765;29;20053;-92
2022/03/19 10:08:36;;;;;;;0.10;0.10;;;;;;;;;;4925893;29;20054;-95
2022/03/19 10:11:03;;;;;;;0.60;0.60;;;;;;;;;;4923011;29;20376;-91
2022/03/19 10:13:29;;;;;;;0.10;0.10;;;;;;;;;;4922951;29;20479;-94
2022/03/19 10:16:04;;;;;;;0.10;0.10;;;;;;;;;;4930316;29;20134;-93
2022/03/19 10:18:35;;;;;;;0.65;0.50;;;;;;;;;;4934595;29;20050;-95
2022/03/19 10:27:10;;;;;;;0.10;0.10;;;;;;;;;;5120252;23;20046;-90
2022/03/19 10:29:41;;;;;;;0.15;0.15;;;;;;;;;;4976171;28;20094;-96
2022/03/19 10:32:32;;;;;;;0.10;0.10;;;;;;;;;;4970956;28;20106;-95
2022/03/19 10:34:58;;;;;;;0.10;0.10;;;;;;;;;;4960362;28;20058;-91
2022/03/19 10:37:41;;;;;;;0.20;0.20;;;;;;;;;;4958779;28;20078;-90
2022/03/19 10:40:10;;;;;;;0.10;0.10;;;;;;;;;;4973951;28;20046;-87
2022/03/19 10:42:40;;;;;;;0.10;0.10;;;;;;;;;;4972574;28;20117;-88
2022/03/19 10:45:09;;;;;;;0.10;0.10;;;;;;;;;;4972656;28;20043;-88
2022/03/19 10:47:39;;;;;;;0.10;0.10;;;;;;;;;;4972341;28;20250;-88
2022/03/19 10:50:05;;;;;;;0.10;0.10;;;;;;;;;;4972788;28;20434;-87
2022/03/19 10:52:31;;;;;;;0.30;0.30;;;;;;;;;;4925036;28;20049;-89
2022/03/19 10:54:58;;;;;;;0.10;0.10;;;;;;;;;;4960623;28;20485;-89
2022/03/19 10:57:24;;;;;;;0.10;0.10;;;;;;;;;;4928524;28;20052;-88
2022/03/19 10:59:50;;;;;;;0.10;0.10;;;;;;;;;;4928197;28;20051;-88
2022/03/19 11:02:16;;;;;;;0.10;0.10;;;;;;;;;;4976543;28;20105;-88
2022/03/19 11:04:42;;;;;;;0.10;0.10;;;;;;;;;;4976642;28;20158;-87
2022/03/19 11:07:08;;;;;;;0.20;0.20;;;;;;;;;;4943883;28;20046;-87
2022/03/19 11:09:34;;;;;;;0.10;0.10;;;;;;;;;;4928351;28;20050;-87
2022/03/19 11:12:03;;;;;;;0.10;0.10;;;;;;;;;;4975945;28;20039;-89
2022/03/19 11:14:30;;;;;;;0.10;0.10;;;;;;;;;;4942383;28;20490;-89
2022/03/19 11:17:28;;;;;;;0.10;0.10;;;;;;;;;;4947338;28;20125;-85
2022/03/19 11:19:59;;;;;;;1.17;0.35;;;;;;;;;;4965459;28;20521;-87
2022/03/19 11:22:25;;;;;;;0.10;0.10;;;;;;;;;;4945131;28;20108;-91
2022/03/19 11:24:58;;;;;;;0.10;0.10;;;;;;;;;;4944565;28;20049;-89
2022/03/19 11:27:24;;;;;;;0.10;0.10;;;;;;;;;;4944024;28;20047;-89
2022/03/19 11:29:50;;;;;;;0.10;0.10;;;;;;;;;;4928030;28;20430;-89
2022/03/19 11:32:22;;;;;;;0.10;0.10;;;;;;;;;;4943900;28;20049;-87
2022/03/19 11:34:48;;;;;;;;;;;;;;;;;;4959451;28;20039;-88
2022/03/19 11:37:14;;;;;;;0.10;0.10;;;;;;;;;;4943513;28;20231;-88
2022/03/19 11:39:59;;;;;;;0.08;0.08;;;;;;;;;;4943593;28;20042;-89
2022/03/19 11:42:29;;;;;;;0.10;0.10;;;;;;;;;;4959458;28;20074;-88
2022/03/19 11:44:55;;;;;;;0.10;0.10;;;;;;;;;;4959175;28;20123;-88
2022/03/19 11:47:21;;;;;;;0.10;0.10;;;;;;;;;;4959605;28;20038;-87
2022/03/19 11:49:55;;;;;;;0.10;0.10;;;;;;;;;;4959079;28;20046;-87
2022/03/19 11:52:27;;;;;;;0.10;0.10;;;;;;;;;;4943144;28;20038;-87
2022/03/19 11:55:04;;;;;;;0.25;0.25;;;;;;;;;;4943601;28;20047;-88
2022/03/19 11:57:46;;;;;;;0.10;0.10;;;;;;;;;;4958868;28;20046;-89
2022/03/19 12:00:20;;;;;;;0.10;0.10;;;;;;;;;;4944282;28;20043;-91
2022/03/19 12:03:04;;;;;;;0.10;0.10;;;;;;;;;;4959587;28;20046;-90
2022/03/19 12:05:31;;;;;;;0.10;0.10;;;;;;;;;;4959701;28;20042;-90
2022/03/19 12:07:59;;;;;;;0.10;0.10;;;;;;;;;;4943780;28;20046;-90
2022/03/19 12:10:26;;;;;;;0.10;0.10;;;;;;;;;;4943723;28;20086;-90
2022/03/19 12:12:53;;;;;;;0.10;0.10;;;;;;;;;;4958848;28;20043;-89
2022/03/19 12:15:34;;;;;;;0.10;0.10;;;;;;;;;;4942679;28;20039;-88
2022/03/19 12:18:19;;;;;;;0.10;0.10;;;;;;;;;;4942267;28;20049;-88
2022/03/19 12:20:45;;;;;;;0.10;0.10;;;;;;;;;;4942513;28;20043;-87
2022/03/19 12:23:11;;;;;;;0.10;0.10;;;;;;;;;;4926489;28;20042;-87
2022/03/19 12:25:39;;;;;;;0.10;0.10;;;;;;;;;;4926589;28;20402;-86
2022/03/19 12:28:05;;;;;;;0.43;0.43;;;;;;;;;;4940592;28;20054;-86
2022/03/19 12:30:32;;;;;;;0.10;0.10;;;;;;;;;;4925934;28;20043;-86
2022/03/19 12:32:58;;;;;;;0.10;0.10;;;;;;;;;;4958074;28;20093;-86
2022/03/19 12:35:26;;;;;;;0.10;0.10;;;;;;;;;;4941985;28;20402;-86
2022/03/19 12:37:52;;;;;;;0.10;0.10;;;;;;;;;;4942194;28;20046;-86
2022/03/19 12:40:25;;;;;;;0.10;0.10;;;;;;;;;;4958051;28;20521;-86
2022/03/19 12:42:54;;;;;;;0.10;0.10;;;;;;;;;;4958416;28;20050;-85
2022/03/19 12:45:21;;;;;;;0.10;0.10;;;;;;;;;;4957829;28;20479;-86
2022/03/19 12:47:51;;;;;;;0.10;0.10;;;;;;;;;;4941908;28;20050;-86
2022/03/19 12:50:18;;;;;;;0.10;0.10;;;;;;;;;;4957856;28;20038;-87
2022/03/19 12:52:45;;;;;;;0.10;0.10;;;;;;;;;;4957860;28;20426;-87
2022/03/19 12:55:20;;;;;;;0.10;0.10;;;;;;;;;;4957673;28;20553;-86
2022/03/19 12:57:56;;;;;;;0.10;0.10;;;;;;;;;;4941614;28;20130;-86
2022/03/19 13:00:22;;;;;;;0.10;0.10;;;;;;;;;;4942018;28;20100;-86
2022/03/19 13:02:52;;;;;;;0.10;0.10;;;;;;;;;;4941926;28;20042;-92
2022/03/19 13:05:18;;;;;;;3.20;1.40;;;;;;;;;;4958141;28;20098;-91
2022/03/19 13:08:00;;;;;;;0.10;0.10;;;;;;;;;;4958034;28;20050;-90
2022/03/19 13:10:26;;;;;;;0.10;0.10;;;;;;;;;;4958566;28;20405;-90
2022/03/19 13:13:08;;;;;;;0.10;0.10;;;;;;;;;;4957738;28;20046;-90
2022/03/19 13:15:34;;;;;;;0.30;0.30;;;;;;;;;;4957765;28;20045;-89
2022/03/19 13:18:00;;;;;;;0.10;0.10;;;;;;;;;;4941932;28;20042;-90
2022/03/19 13:20:26;;;;;;;0.10;0.10;;;;;;;;;;4926402;28;20097;-91
2022/03/19 13:23:18;;;;;;;0.10;0.10;;;;;;;;;;4926102;28;20042;-90
2022/03/19 13:25:44;;;;;;;0.10;0.10;;;;;;;;;;4955770;28;20494;-88
2022/03/19 13:28:11;;;;;;;0.10;0.10;;;;;;;;;;4925982;28;20051;-90
2022/03/19 13:30:37;;;;;;;0.10;0.10;;;;;;;;;;4926257;28;20038;-89
2022/03/19 13:33:03;;;;;;;0.10;0.10;;;;;;;;;;4925868;28;20505;-89
2022/03/19 13:35:36;;;;;;;0.10;0.10;;;;;;;;;;4925365;28;20042;-88
2022/03/19 13:38:08;;;;;;;0.10;0.10;;;;;;;;;;4941082;28;20050;-87
2022/03/19 13:40:33;;;;;;;0.10;0.10;;;;;;;;;;4941054;28;20038;-88
2022/03/19 13:43:00;;;;;;;0.10;0.10;;;;;;;;;;4925893;28;20053;-88
2022/03/19 13:45:26;;;;;;;0.20;0.20;;;;;;;;;;4941394;28;20049;-88
2022/03/19 13:47:54;;;;;;;0.10;0.10;;;;;;;;;;4925058;28;20042;-86
2022/03/19 13:50:20;;;;;;;0.10;0.10;;;;;;;;;;4941180;28;20070;-89
2022/03/19 13:52:53;;;;;;;0.10;0.10;;;;;;;;;;4924760;28;20066;-89
2022/03/19 13:55:22;;;;;;;0.03;0.03;;;;;;;;;;4925618;28;20038;-89
2022/03/19 13:57:55;;;;;;;0.10;0.10;;;;;;;;;;4956626;28;20522;-88
2022/03/19 14:00:27;;;;;;;0.10;0.10;;;;;;;;;;4940849;28;20054;-89
2022/03/19 14:03:04;;;;;;;0.10;0.10;;;;;;;;;;4926045;28;20123;-91
2022/03/19 14:05:31;;;;;;;0.13;0.13;;;;;;;;;;4934795;28;20096;-92
2022/03/19 14:07:58;;;;;;;0.10;0.10;;;;;;;;;;4942155;28;20043;-91
2022/03/19 14:10:32;;;;;;;0.10;0.10;;;;;;;;;;4942169;28;20132;-90
2022/03/19 14:13:02;;;;;;;0.10;0.10;;;;;;;;;;4925654;28;20047;-92
2022/03/19 14:15:37;;;;;;;0.10;0.10;;;;;;;;;;4941644;28;20065;-90
2022/03/19 14:18:03;;;;;;;0.10;0.10;;;;;;;;;;4926073;28;20043;-92
2022/03/19 14:20:29;;;;;;;0.10;0.10;;;;;;;;;;4925726;28;20089;-91
2022/03/19 14:22:55;;;;;;;0.10;0.10;;;;;;;;;;4925732;28;20403;-91
2022/03/19 14:25:24;;;;;;;0.10;0.10;;;;;;;;;;4940466;28;20059;-92
2022/03/19 14:28:12;;;;;;;0.10;0.10;;;;;;;;;;4926253;28;20133;-91
2022/03/19 14:30:38;;;;;;;0.10;0.10;;;;;;;;;;4926071;28;20565;-92
2022/03/19 14:33:05;;;;;;;0.10;0.10;;;;;;;;;;4957881;28;20038;-92
2022/03/19 14:35:44;;;;;;;0.00;0.00;;;;;;;;;;4941791;28;20050;-93
2022/03/19 14:38:11;;;;;;;0.10;0.10;;;;;;;;;;4925947;28;20038;-93
2022/03/19 14:40:37;;;;;;;0.10;0.10;;;;;;;;;;4925854;28;20042;-90
2022/03/19 14:43:03;;;;;;;0.30;0.30;;;;;;;;;;4941354;28;20039;-91
2022/03/19 14:45:29;;;;;;;0.10;0.10;;;;;;;;;;4941117;28;20054;-93
2022/03/19 14:47:55;;;;;;;0.10;0.10;;;;;;;;;;4941590;28;20069;-93
2022/03/19 14:50:27;;;;;;;0.10;0.10;;;;;;;;;;4925766;28;20050;-95
2022/03/19 14:52:59;;;;;;;0.10;0.10;;;;;;;;;;4942431;28;20352;-93
2022/03/19 14:55:25;;;;;;;0.10;0.10;;;;;;;;;;4942603;28;20050;-93
2022/03/19 14:57:52;;;;;;;0.10;0.10;;;;;;;;;;4926054;28;20483;-92
2022/03/19 15:00:21;;;;;;;0.10;0.10;;;;;;;;;;4926220;28;20054;-92
2022/03/19 15:02:47;;;;;;;0.20;0.20;;;;;;;;;;4942145;28;20463;-95
2022/03/19 15:05:16;;;;;;;0.10;0.10;;;;;;;;;;4942066;28;20043;-90